sensor_id;sensor_type;location;lat;lon;timestamp;P1;durP1;ratioP1;P2;durP2;ratioP2
59512;SDS011;45330;51.634;5.562;2024-01-16T00:02:12;24.65;;;8.43;;
59512;SDS011;45330;51.634;5.562;2024-01-16T00:04:37;21.10;;;7.60;;
59512;SDS011;45330;51.634;5.562;2024-01-16T00:07:03;24.02;;;9.05;;
59512;SDS011;45330;51.634;5.562;2024-01-16T00:09:29;21.83;;;7.82;;
59512;SDS011;45330;51.634;5.562;2024-01-16T00:11:57;21.30;;;8.20;;
59512;SDS011;45330;51.634;5.562;2024-01-16T00:14:22;23.27;;;7.95;;
59512;SDS011;45330;51.634;5.562;2024-01-16T00:16:48;22.92;;;8.02;;
59512;SDS011;45330;51.634;5.562;2024-01-16T00:19:13;21.02;;;7.90;;
59512;SDS011;45330;51.634;5.562;2024-01-16T00:21:39;21.85;;;7.40;;
59512;SDS011;45330;51.634;5.562;2024-01-16T00:24:10;20.52;;;7.45;;
59512;SDS011;45330;51.634;5.562;2024-01-16T00:26:36;24.08;;;7.35;;
59512;SDS011;45330;51.634;5.562;2024-01-16T00:29:01;19.85;;;6.93;;
59512;SDS011;45330;51.634;5.562;2024-01-16T00:31:27;21.00;;;6.82;;
59512;SDS011;45330;51.634;5.562;2024-01-16T00:33:52;18.27;;;6.45;;
59512;SDS011;45330;51.634;5.562;2024-01-16T00:36:18;21.27;;;7.60;;
59512;SDS011;45330;51.634;5.562;2024-01-16T00:38:43;19.38;;;6.68;;
59512;SDS011;45330;51.634;5.562;2024-01-16T00:41:10;17.83;;;6.03;;
59512;SDS011;45330;51.634;5.562;2024-01-16T00:43:35;18.52;;;6.45;;
59512;SDS011;45330;51.634;5.562;2024-01-16T00:46:01;17.98;;;5.80;;
59512;SDS011;45330;51.634;5.562;2024-01-16T00:48:26;19.13;;;6.13;;
59512;SDS011;45330;51.634;5.562;2024-01-16T00:50:52;21.67;;;6.40;;
59512;SDS011;45330;51.634;5.562;2024-01-16T00:53:17;17.58;;;5.93;;
59512;SDS011;45330;51.634;5.562;2024-01-16T00:55:42;19.05;;;6.35;;
59512;SDS011;45330;51.634;5.562;2024-01-16T00:58:08;22.33;;;6.95;;
59512;SDS011;45330;51.634;5.562;2024-01-16T01:00:33;19.88;;;6.43;;
59512;SDS011;45330;51.634;5.562;2024-01-16T01:03:00;18.95;;;5.82;;
59512;SDS011;45330;51.634;5.562;2024-01-16T01:05:25;19.23;;;6.03;;
59512;SDS011;45330;51.634;5.562;2024-01-16T01:07:56;18.77;;;6.38;;
59512;SDS011;45330;51.634;5.562;2024-01-16T01:10:21;20.50;;;6.25;;
59512;SDS011;45330;51.634;5.562;2024-01-16T01:12:47;17.00;;;5.72;;
59512;SDS011;45330;51.634;5.562;2024-01-16T01:15:12;18.38;;;5.97;;
59512;SDS011;45330;51.634;5.562;2024-01-16T01:17:39;18.77;;;5.78;;
59512;SDS011;45330;51.634;5.562;2024-01-16T01:20:05;16.80;;;6.15;;
59512;SDS011;45330;51.634;5.562;2024-01-16T01:22:31;21.35;;;6.65;;
59512;SDS011;45330;51.634;5.562;2024-01-16T01:24:57;20.15;;;7.00;;
59512;SDS011;45330;51.634;5.562;2024-01-16T01:27:22;19.55;;;6.95;;
59512;SDS011;45330;51.634;5.562;2024-01-16T01:29:48;19.08;;;6.22;;
59512;SDS011;45330;51.634;5.562;2024-01-16T01:32:13;22.48;;;6.88;;
59512;SDS011;45330;51.634;5.562;2024-01-16T01:34:40;20.60;;;6.70;;
59512;SDS011;45330;51.634;5.562;2024-01-16T01:37:06;19.75;;;6.60;;
59512;SDS011;45330;51.634;5.562;2024-01-16T01:39:32;21.85;;;6.47;;
59512;SDS011;45330;51.634;5.562;2024-01-16T01:41:57;19.60;;;6.43;;
59512;SDS011;45330;51.634;5.562;2024-01-16T01:44:23;21.35;;;6.40;;
59512;SDS011;45330;51.634;5.562;2024-01-16T01:46:49;23.40;;;6.53;;
59512;SDS011;45330;51.634;5.562;2024-01-16T01:49:15;20.75;;;6.35;;
59512;SDS011;45330;51.634;5.562;2024-01-16T01:51:41;22.95;;;6.25;;
59512;SDS011;45330;51.634;5.562;2024-01-16T01:54:07;20.98;;;6.90;;
59512;SDS011;45330;51.634;5.562;2024-01-16T01:56:34;23.27;;;6.82;;
59512;SDS011;45330;51.634;5.562;2024-01-16T01:59:00;19.92;;;6.35;;
59512;SDS011;45330;51.634;5.562;2024-01-16T02:01:27;21.05;;;6.32;;
59512;SDS011;45330;51.634;5.562;2024-01-16T02:03:54;22.23;;;6.13;;
59512;SDS011;45330;51.634;5.562;2024-01-16T02:06:21;18.77;;;5.80;;
59512;SDS011;45330;51.634;5.562;2024-01-16T02:08:47;23.60;;;6.57;;
59512;SDS011;45330;51.634;5.562;2024-01-16T02:11:13;18.98;;;5.82;;
59512;SDS011;45330;51.634;5.562;2024-01-16T02:13:39;21.95;;;6.22;;
59512;SDS011;45330;51.634;5.562;2024-01-16T02:16:16;23.08;;;5.75;;
59512;SDS011;45330;51.634;5.562;2024-01-16T02:18:42;20.73;;;6.32;;
59512;SDS011;45330;51.634;5.562;2024-01-16T02:21:08;19.15;;;6.05;;
59512;SDS011;45330;51.634;5.562;2024-01-16T02:23:33;21.63;;;5.55;;
59512;SDS011;45330;51.634;5.562;2024-01-16T02:25:59;18.40;;;5.50;;
59512;SDS011;45330;51.634;5.562;2024-01-16T02:28:25;18.23;;;5.20;;
59512;SDS011;45330;51.634;5.562;2024-01-16T02:30:51;21.92;;;5.65;;
59512;SDS011;45330;51.634;5.562;2024-01-16T02:33:16;19.42;;;5.22;;
59512;SDS011;45330;51.634;5.562;2024-01-16T02:35:42;16.27;;;5.00;;
59512;SDS011;45330;51.634;5.562;2024-01-16T02:38:07;17.65;;;5.00;;
59512;SDS011;45330;51.634;5.562;2024-01-16T02:40:32;15.70;;;4.47;;
59512;SDS011;45330;51.634;5.562;2024-01-16T02:42:58;17.27;;;4.53;;
59512;SDS011;45330;51.634;5.562;2024-01-16T02:45:23;15.57;;;5.35;;
59512;SDS011;45330;51.634;5.562;2024-01-16T02:47:48;17.02;;;4.60;;
59512;SDS011;45330;51.634;5.562;2024-01-16T02:50:14;16.30;;;4.65;;
59512;SDS011;45330;51.634;5.562;2024-01-16T02:52:40;19.38;;;4.38;;
59512;SDS011;45330;51.634;5.562;2024-01-16T02:55:05;17.30;;;4.70;;
59512;SDS011;45330;51.634;5.562;2024-01-16T02:57:31;16.08;;;4.10;;
59512;SDS011;45330;51.634;5.562;2024-01-16T02:59:57;17.77;;;4.00;;
59512;SDS011;45330;51.634;5.562;2024-01-16T03:02:22;16.40;;;3.90;;
59512;SDS011;45330;51.634;5.562;2024-01-16T03:04:48;12.20;;;3.53;;
59512;SDS011;45330;51.634;5.562;2024-01-16T03:07:14;17.40;;;4.82;;
59512;SDS011;45330;51.634;5.562;2024-01-16T03:09:40;17.00;;;4.18;;
59512;SDS011;45330;51.634;5.562;2024-01-16T03:12:06;14.05;;;3.97;;
59512;SDS011;45330;51.634;5.562;2024-01-16T03:14:31;11.85;;;4.05;;
59512;SDS011;45330;51.634;5.562;2024-01-16T03:17:00;15.93;;;3.92;;
59512;SDS011;45330;51.634;5.562;2024-01-16T03:19:29;12.40;;;3.83;;
59512;SDS011;45330;51.634;5.562;2024-01-16T03:21:54;16.02;;;3.58;;
59512;SDS011;45330;51.634;5.562;2024-01-16T03:24:20;13.27;;;4.00;;
59512;SDS011;45330;51.634;5.562;2024-01-16T03:26:45;12.90;;;4.10;;
59512;SDS011;45330;51.634;5.562;2024-01-16T03:29:11;13.93;;;3.72;;
59512;SDS011;45330;51.634;5.562;2024-01-16T03:31:36;11.90;;;3.38;;
59512;SDS011;45330;51.634;5.562;2024-01-16T03:34:01;12.02;;;3.90;;
59512;SDS011;45330;51.634;5.562;2024-01-16T03:36:27;11.15;;;3.53;;
59512;SDS011;45330;51.634;5.562;2024-01-16T03:38:53;12.00;;;3.40;;
59512;SDS011;45330;51.634;5.562;2024-01-16T03:41:18;14.07;;;4.22;;
59512;SDS011;45330;51.634;5.562;2024-01-16T03:43:43;11.60;;;2.88;;
59512;SDS011;45330;51.634;5.562;2024-01-16T03:46:12;11.73;;;3.13;;
59512;SDS011;45330;51.634;5.562;2024-01-16T03:48:38;8.10;;;2.80;;
59512;SDS011;45330;51.634;5.562;2024-01-16T03:51:04;10.82;;;2.95;;
59512;SDS011;45330;51.634;5.562;2024-01-16T03:53:30;6.15;;;2.63;;
59512;SDS011;45330;51.634;5.562;2024-01-16T03:55:56;10.57;;;2.80;;
59512;SDS011;45330;51.634;5.562;2024-01-16T03:58:21;8.45;;;2.60;;
59512;SDS011;45330;51.634;5.562;2024-01-16T04:00:47;13.20;;;3.00;;
59512;SDS011;45330;51.634;5.562;2024-01-16T04:03:15;8.30;;;2.53;;
59512;SDS011;45330;51.634;5.562;2024-01-16T04:05:40;13.13;;;3.13;;
59512;SDS011;45330;51.634;5.562;2024-01-16T04:08:06;13.57;;;3.42;;
59512;SDS011;45330;51.634;5.562;2024-01-16T04:10:31;12.30;;;3.58;;
59512;SDS011;45330;51.634;5.562;2024-01-16T04:12:59;13.02;;;3.58;;
59512;SDS011;45330;51.634;5.562;2024-01-16T04:15:25;14.70;;;3.70;;
59512;SDS011;45330;51.634;5.562;2024-01-16T04:17:51;12.48;;;3.67;;
59512;SDS011;45330;51.634;5.562;2024-01-16T04:20:16;13.18;;;3.83;;
59512;SDS011;45330;51.634;5.562;2024-01-16T04:22:41;16.08;;;4.57;;
59512;SDS011;45330;51.634;5.562;2024-01-16T04:25:07;15.95;;;4.60;;
59512;SDS011;45330;51.634;5.562;2024-01-16T04:27:32;20.27;;;4.97;;
59512;SDS011;45330;51.634;5.562;2024-01-16T04:29:58;17.80;;;5.20;;
59512;SDS011;45330;51.634;5.562;2024-01-16T04:32:23;17.58;;;5.18;;
59512;SDS011;45330;51.634;5.562;2024-01-16T04:34:49;20.08;;;6.63;;
59512;SDS011;45330;51.634;5.562;2024-01-16T04:37:14;22.27;;;6.60;;
59512;SDS011;45330;51.634;5.562;2024-01-16T04:39:40;23.27;;;7.95;;
59512;SDS011;45330;51.634;5.562;2024-01-16T04:42:05;24.33;;;8.10;;
59512;SDS011;45330;51.634;5.562;2024-01-16T04:44:30;24.02;;;8.30;;
59512;SDS011;45330;51.634;5.562;2024-01-16T04:46:56;26.17;;;9.82;;
59512;SDS011;45330;51.634;5.562;2024-01-16T04:49:21;25.90;;;9.70;;
59512;SDS011;45330;51.634;5.562;2024-01-16T04:51:46;24.50;;;9.88;;
59512;SDS011;45330;51.634;5.562;2024-01-16T04:54:12;26.85;;;10.88;;
59512;SDS011;45330;51.634;5.562;2024-01-16T04:56:38;24.73;;;10.57;;
59512;SDS011;45330;51.634;5.562;2024-01-16T04:59:04;25.65;;;10.93;;
59512;SDS011;45330;51.634;5.562;2024-01-16T05:01:29;31.90;;;11.55;;
59512;SDS011;45330;51.634;5.562;2024-01-16T05:03:55;25.42;;;10.88;;
59512;SDS011;45330;51.634;5.562;2024-01-16T05:06:20;25.75;;;11.30;;
59512;SDS011;45330;51.634;5.562;2024-01-16T05:08:46;26.02;;;10.82;;
59512;SDS011;45330;51.634;5.562;2024-01-16T05:11:12;28.42;;;11.88;;
59512;SDS011;45330;51.634;5.562;2024-01-16T05:13:37;25.48;;;11.73;;
59512;SDS011;45330;51.634;5.562;2024-01-16T05:16:02;30.20;;;11.18;;
59512;SDS011;45330;51.634;5.562;2024-01-16T05:18:28;25.65;;;10.82;;
59512;SDS011;45330;51.634;5.562;2024-01-16T05:20:53;24.40;;;11.10;;
59512;SDS011;45330;51.634;5.562;2024-01-16T05:23:21;27.80;;;10.77;;
59512;SDS011;45330;51.634;5.562;2024-01-16T05:25:46;28.70;;;11.65;;
59512;SDS011;45330;51.634;5.562;2024-01-16T05:28:12;24.15;;;10.85;;
59512;SDS011;45330;51.634;5.562;2024-01-16T05:30:37;26.35;;;11.73;;
59512;SDS011;45330;51.634;5.562;2024-01-16T05:33:02;27.73;;;11.13;;
59512;SDS011;45330;51.634;5.562;2024-01-16T05:35:28;26.27;;;11.05;;
59512;SDS011;45330;51.634;5.562;2024-01-16T05:37:54;26.48;;;11.07;;
59512;SDS011;45330;51.634;5.562;2024-01-16T05:40:20;28.05;;;11.55;;
59512;SDS011;45330;51.634;5.562;2024-01-16T05:42:47;28.90;;;12.23;;
59512;SDS011;45330;51.634;5.562;2024-01-16T05:45:13;24.58;;;11.30;;
59512;SDS011;45330;51.634;5.562;2024-01-16T05:47:39;23.90;;;11.43;;
59512;SDS011;45330;51.634;5.562;2024-01-16T05:50:04;26.02;;;10.40;;
59512;SDS011;45330;51.634;5.562;2024-01-16T05:52:30;28.45;;;11.27;;
59512;SDS011;45330;51.634;5.562;2024-01-16T05:54:56;28.77;;;11.55;;
59512;SDS011;45330;51.634;5.562;2024-01-16T05:57:23;29.98;;;11.48;;
59512;SDS011;45330;51.634;5.562;2024-01-16T05:59:49;24.67;;;11.15;;
59512;SDS011;45330;51.634;5.562;2024-01-16T06:02:14;24.85;;;11.00;;
59512;SDS011;45330;51.634;5.562;2024-01-16T06:04:40;26.42;;;11.80;;
59512;SDS011;45330;51.634;5.562;2024-01-16T06:07:05;28.45;;;11.15;;
59512;SDS011;45330;51.634;5.562;2024-01-16T06:09:32;26.35;;;10.82;;
59512;SDS011;45330;51.634;5.562;2024-01-16T06:11:58;25.52;;;10.82;;
59512;SDS011;45330;51.634;5.562;2024-01-16T06:14:23;23.50;;;10.65;;
59512;SDS011;45330;51.634;5.562;2024-01-16T06:16:49;24.20;;;10.80;;
59512;SDS011;45330;51.634;5.562;2024-01-16T06:19:15;24.85;;;11.18;;
59512;SDS011;45330;51.634;5.562;2024-01-16T06:21:41;26.88;;;11.60;;
59512;SDS011;45330;51.634;5.562;2024-01-16T06:24:06;27.48;;;10.45;;
59512;SDS011;45330;51.634;5.562;2024-01-16T06:26:32;26.05;;;10.13;;
59512;SDS011;45330;51.634;5.562;2024-01-16T06:28:58;25.40;;;9.60;;
59512;SDS011;45330;51.634;5.562;2024-01-16T06:31:23;24.52;;;9.13;;
59512;SDS011;45330;51.634;5.562;2024-01-16T06:33:51;24.17;;;10.10;;
59512;SDS011;45330;51.634;5.562;2024-01-16T06:36:16;22.85;;;9.85;;
59512;SDS011;45330;51.634;5.562;2024-01-16T06:38:42;20.10;;;8.57;;
59512;SDS011;45330;51.634;5.562;2024-01-16T06:41:07;26.00;;;10.18;;
59512;SDS011;45330;51.634;5.562;2024-01-16T06:43:33;22.25;;;9.20;;
59512;SDS011;45330;51.634;5.562;2024-01-16T06:45:58;20.50;;;8.43;;
59512;SDS011;45330;51.634;5.562;2024-01-16T06:48:24;21.15;;;8.35;;
59512;SDS011;45330;51.634;5.562;2024-01-16T06:50:50;25.25;;;8.93;;
59512;SDS011;45330;51.634;5.562;2024-01-16T06:53:15;23.60;;;8.80;;
59512;SDS011;45330;51.634;5.562;2024-01-16T06:55:40;20.95;;;8.13;;
59512;SDS011;45330;51.634;5.562;2024-01-16T06:58:06;23.65;;;8.38;;
59512;SDS011;45330;51.634;5.562;2024-01-16T07:00:32;24.10;;;8.15;;
59512;SDS011;45330;51.634;5.562;2024-01-16T07:02:57;23.58;;;8.13;;
59512;SDS011;45330;51.634;5.562;2024-01-16T07:05:23;23.95;;;7.30;;
59512;SDS011;45330;51.634;5.562;2024-01-16T07:07:48;24.55;;;7.68;;
59512;SDS011;45330;51.634;5.562;2024-01-16T07:10:14;19.48;;;7.15;;
59512;SDS011;45330;51.634;5.562;2024-01-16T07:12:43;20.17;;;7.43;;
59512;SDS011;45330;51.634;5.562;2024-01-16T07:15:10;21.15;;;7.60;;
59512;SDS011;45330;51.634;5.562;2024-01-16T07:17:35;18.95;;;7.60;;
59512;SDS011;45330;51.634;5.562;2024-01-16T07:20:01;19.88;;;6.75;;
59512;SDS011;45330;51.634;5.562;2024-01-16T07:22:27;23.67;;;7.15;;
59512;SDS011;45330;51.634;5.562;2024-01-16T07:24:52;18.40;;;6.85;;
59512;SDS011;45330;51.634;5.562;2024-01-16T07:27:18;18.70;;;6.68;;
59512;SDS011;45330;51.634;5.562;2024-01-16T07:29:43;19.23;;;6.63;;
59512;SDS011;45330;51.634;5.562;2024-01-16T07:32:08;21.60;;;6.60;;
59512;SDS011;45330;51.634;5.562;2024-01-16T07:34:36;17.15;;;6.18;;
59512;SDS011;45330;51.634;5.562;2024-01-16T07:37:01;20.98;;;6.80;;
59512;SDS011;45330;51.634;5.562;2024-01-16T07:39:26;20.00;;;6.45;;
59512;SDS011;45330;51.634;5.562;2024-01-16T07:41:52;22.08;;;6.30;;
59512;SDS011;45330;51.634;5.562;2024-01-16T07:44:17;19.15;;;6.20;;
59512;SDS011;45330;51.634;5.562;2024-01-16T07:46:43;19.08;;;5.72;;
59512;SDS011;45330;51.634;5.562;2024-01-16T07:49:08;17.63;;;6.32;;
59512;SDS011;45330;51.634;5.562;2024-01-16T07:51:33;18.45;;;5.82;;
59512;SDS011;45330;51.634;5.562;2024-01-16T07:54:06;20.95;;;5.97;;
59512;SDS011;45330;51.634;5.562;2024-01-16T07:56:33;16.48;;;5.85;;
59512;SDS011;45330;51.634;5.562;2024-01-16T07:58:59;19.38;;;6.18;;
59512;SDS011;45330;51.634;5.562;2024-01-16T08:01:24;15.82;;;5.50;;
59512;SDS011;45330;51.634;5.562;2024-01-16T08:03:50;18.17;;;5.53;;
59512;SDS011;45330;51.634;5.562;2024-01-16T08:06:15;16.63;;;5.10;;
59512;SDS011;45330;51.634;5.562;2024-01-16T08:08:41;16.17;;;5.65;;
59512;SDS011;45330;51.634;5.562;2024-01-16T08:11:06;18.73;;;5.50;;
59512;SDS011;45330;51.634;5.562;2024-01-16T08:13:32;18.05;;;6.07;;
59512;SDS011;45330;51.634;5.562;2024-01-16T08:15:58;17.77;;;5.45;;
59512;SDS011;45330;51.634;5.562;2024-01-16T08:18:23;19.60;;;5.70;;
59512;SDS011;45330;51.634;5.562;2024-01-16T08:20:48;18.55;;;5.32;;
59512;SDS011;45330;51.634;5.562;2024-01-16T08:23:14;20.33;;;5.90;;
59512;SDS011;45330;51.634;5.562;2024-01-16T08:25:39;18.83;;;5.72;;
59512;SDS011;45330;51.634;5.562;2024-01-16T08:28:04;18.95;;;6.13;;
59512;SDS011;45330;51.634;5.562;2024-01-16T08:30:30;16.00;;;5.30;;
59512;SDS011;45330;51.634;5.562;2024-01-16T08:32:55;17.60;;;5.50;;
59512;SDS011;45330;51.634;5.562;2024-01-16T08:35:21;18.05;;;5.22;;
59512;SDS011;45330;51.634;5.562;2024-01-16T08:37:47;19.15;;;5.75;;
59512;SDS011;45330;51.634;5.562;2024-01-16T08:40:13;17.40;;;5.80;;
59512;SDS011;45330;51.634;5.562;2024-01-16T08:42:38;16.33;;;5.60;;
59512;SDS011;45330;51.634;5.562;2024-01-16T08:45:04;14.70;;;5.82;;
59512;SDS011;45330;51.634;5.562;2024-01-16T08:47:30;16.75;;;4.80;;
59512;SDS011;45330;51.634;5.562;2024-01-16T08:49:56;15.35;;;5.25;;
59512;SDS011;45330;51.634;5.562;2024-01-16T08:52:21;18.33;;;5.00;;
59512;SDS011;45330;51.634;5.562;2024-01-16T08:54:47;18.50;;;4.80;;
59512;SDS011;45330;51.634;5.562;2024-01-16T08:57:13;16.48;;;4.70;;
59512;SDS011;45330;51.634;5.562;2024-01-16T08:59:40;18.67;;;4.90;;
59512;SDS011;45330;51.634;5.562;2024-01-16T09:02:05;18.15;;;5.22;;
59512;SDS011;45330;51.634;5.562;2024-01-16T09:04:31;14.00;;;4.40;;
59512;SDS011;45330;51.634;5.562;2024-01-16T09:06:56;20.02;;;5.43;;
59512;SDS011;45330;51.634;5.562;2024-01-16T09:09:22;13.10;;;4.57;;
59512;SDS011;45330;51.634;5.562;2024-01-16T09:11:47;13.68;;;4.25;;
59512;SDS011;45330;51.634;5.562;2024-01-16T09:14:12;16.15;;;4.88;;
59512;SDS011;45330;51.634;5.562;2024-01-16T09:16:38;13.73;;;4.57;;
59512;SDS011;45330;51.634;5.562;2024-01-16T09:19:04;14.25;;;4.53;;
59512;SDS011;45330;51.634;5.562;2024-01-16T09:21:29;18.67;;;5.05;;
59512;SDS011;45330;51.634;5.562;2024-01-16T09:23:55;14.00;;;4.65;;
59512;SDS011;45330;51.634;5.562;2024-01-16T09:26:20;16.70;;;4.90;;
59512;SDS011;45330;51.634;5.562;2024-01-16T09:28:46;17.35;;;5.40;;
59512;SDS011;45330;51.634;5.562;2024-01-16T09:31:11;18.48;;;4.68;;
59512;SDS011;45330;51.634;5.562;2024-01-16T09:33:36;14.40;;;4.78;;
59512;SDS011;45330;51.634;5.562;2024-01-16T09:36:02;15.48;;;4.75;;
59512;SDS011;45330;51.634;5.562;2024-01-16T09:38:28;14.27;;;4.15;;
59512;SDS011;45330;51.634;5.562;2024-01-16T09:40:53;13.35;;;3.97;;
59512;SDS011;45330;51.634;5.562;2024-01-16T09:43:21;16.88;;;4.95;;
59512;SDS011;45330;51.634;5.562;2024-01-16T09:45:47;15.85;;;4.40;;
59512;SDS011;45330;51.634;5.562;2024-01-16T09:48:14;11.48;;;4.00;;
59512;SDS011;45330;51.634;5.562;2024-01-16T09:50:39;15.18;;;4.50;;
59512;SDS011;45330;51.634;5.562;2024-01-16T09:53:05;16.13;;;4.53;;
59512;SDS011;45330;51.634;5.562;2024-01-16T09:55:30;12.60;;;4.20;;
59512;SDS011;45330;51.634;5.562;2024-01-16T09:57:56;14.55;;;4.43;;
59512;SDS011;45330;51.634;5.562;2024-01-16T10:00:23;14.65;;;4.18;;
59512;SDS011;45330;51.634;5.562;2024-01-16T10:02:50;9.98;;;3.97;;
59512;SDS011;45330;51.634;5.562;2024-01-16T10:05:17;15.40;;;4.65;;
59512;SDS011;45330;51.634;5.562;2024-01-16T10:07:43;13.77;;;4.63;;
59512;SDS011;45330;51.634;5.562;2024-01-16T10:10:11;14.02;;;4.70;;
59512;SDS011;45330;51.634;5.562;2024-01-16T10:12:37;15.93;;;4.70;;
59512;SDS011;45330;51.634;5.562;2024-01-16T10:15:05;11.00;;;4.20;;
59512;SDS011;45330;51.634;5.562;2024-01-16T10:17:36;14.02;;;5.30;;
59512;SDS011;45330;51.634;5.562;2024-01-16T10:20:03;14.50;;;4.97;;
59512;SDS011;45330;51.634;5.562;2024-01-16T10:22:32;16.88;;;4.93;;
59512;SDS011;45330;51.634;5.562;2024-01-16T10:25:10;16.67;;;4.82;;
59512;SDS011;45330;51.634;5.562;2024-01-16T10:27:38;14.55;;;4.70;;
59512;SDS011;45330;51.634;5.562;2024-01-16T10:30:05;15.20;;;4.40;;
59512;SDS011;45330;51.634;5.562;2024-01-16T10:32:33;14.82;;;4.85;;
59512;SDS011;45330;51.634;5.562;2024-01-16T10:35:21;14.35;;;4.85;;
59512;SDS011;45330;51.634;5.562;2024-01-16T10:37:46;17.08;;;4.60;;
59512;SDS011;45330;51.634;5.562;2024-01-16T10:40:16;14.02;;;4.50;;
59512;SDS011;45330;51.634;5.562;2024-01-16T10:42:43;12.80;;;4.57;;
59512;SDS011;45330;51.634;5.562;2024-01-16T10:45:20;17.08;;;4.57;;
59512;SDS011;45330;51.634;5.562;2024-01-16T10:47:47;15.50;;;4.65;;
59512;SDS011;45330;51.634;5.562;2024-01-16T10:50:13;16.38;;;5.00;;
59512;SDS011;45330;51.634;5.562;2024-01-16T10:52:42;18.10;;;5.43;;
59512;SDS011;45330;51.634;5.562;2024-01-16T10:55:13;12.50;;;4.57;;
59512;SDS011;45330;51.634;5.562;2024-01-16T10:57:47;17.13;;;5.22;;
59512;SDS011;45330;51.634;5.562;2024-01-16T11:00:14;16.23;;;4.80;;
59512;SDS011;45330;51.634;5.562;2024-01-16T11:02:47;16.85;;;5.20;;
59512;SDS011;45330;51.634;5.562;2024-01-16T11:05:16;13.30;;;4.90;;
59512;SDS011;45330;51.634;5.562;2024-01-16T11:07:42;13.60;;;4.68;;
59512;SDS011;45330;51.634;5.562;2024-01-16T11:10:09;14.48;;;4.60;;
59512;SDS011;45330;51.634;5.562;2024-01-16T11:12:36;15.52;;;4.95;;
59512;SDS011;45330;51.634;5.562;2024-01-16T11:15:04;15.98;;;4.80;;
59512;SDS011;45330;51.634;5.562;2024-01-16T11:17:33;17.95;;;4.95;;
59512;SDS011;45330;51.634;5.562;2024-01-16T11:20:02;17.52;;;4.70;;
59512;SDS011;45330;51.634;5.562;2024-01-16T11:22:43;16.75;;;5.63;;
59512;SDS011;45330;51.634;5.562;2024-01-16T11:25:13;14.68;;;5.03;;
59512;SDS011;45330;51.634;5.562;2024-01-16T11:27:41;14.02;;;5.15;;
59512;SDS011;45330;51.634;5.562;2024-01-16T11:30:08;15.30;;;4.60;;
59512;SDS011;45330;51.634;5.562;2024-01-16T11:32:41;14.07;;;5.10;;
59512;SDS011;45330;51.634;5.562;2024-01-16T11:35:07;16.63;;;5.43;;
59512;SDS011;45330;51.634;5.562;2024-01-16T11:37:34;18.65;;;5.35;;
59512;SDS011;45330;51.634;5.562;2024-01-16T11:40:23;16.30;;;4.65;;
59512;SDS011;45330;51.634;5.562;2024-01-16T11:42:48;15.38;;;4.63;;
59512;SDS011;45330;51.634;5.562;2024-01-16T11:50:34;14.90;;;4.82;;
59512;SDS011;45330;51.634;5.562;2024-01-16T11:53:00;16.88;;;5.05;;
59512;SDS011;45330;51.634;5.562;2024-01-16T12:01:03;11.88;;;4.30;;
59512;SDS011;45330;51.634;5.562;2024-01-16T12:03:30;14.60;;;4.82;;
59512;SDS011;45330;51.634;5.562;2024-01-16T12:06:01;15.57;;;4.68;;
59512;SDS011;45330;51.634;5.562;2024-01-16T12:08:27;12.52;;;4.40;;
59512;SDS011;45330;51.634;5.562;2024-01-16T12:10:53;15.63;;;4.72;;
59512;SDS011;45330;51.634;5.562;2024-01-16T12:13:19;14.05;;;4.63;;
59512;SDS011;45330;51.634;5.562;2024-01-16T12:15:44;14.02;;;4.38;;
59512;SDS011;45330;51.634;5.562;2024-01-16T12:18:17;13.55;;;4.10;;
59512;SDS011;45330;51.634;5.562;2024-01-16T12:20:43;23.20;;;5.20;;
59512;SDS011;45330;51.634;5.562;2024-01-16T12:23:09;13.35;;;4.50;;
59512;SDS011;45330;51.634;5.562;2024-01-16T12:25:35;14.38;;;5.05;;
59512;SDS011;45330;51.634;5.562;2024-01-16T12:28:03;13.13;;;4.30;;
59512;SDS011;45330;51.634;5.562;2024-01-16T12:30:30;13.48;;;3.90;;
59512;SDS011;45330;51.634;5.562;2024-01-16T12:33:06;15.65;;;4.40;;
59512;SDS011;45330;51.634;5.562;2024-01-16T12:35:42;13.73;;;4.40;;
59512;SDS011;45330;51.634;5.562;2024-01-16T12:38:12;13.23;;;4.40;;
59512;SDS011;45330;51.634;5.562;2024-01-16T12:40:47;12.88;;;4.07;;
59512;SDS011;45330;51.634;5.562;2024-01-16T12:43:18;14.43;;;4.38;;
59512;SDS011;45330;51.634;5.562;2024-01-16T12:45:44;11.35;;;3.90;;
59512;SDS011;45330;51.634;5.562;2024-01-16T12:48:10;16.23;;;4.45;;
59512;SDS011;45330;51.634;5.562;2024-01-16T12:50:35;14.63;;;4.32;;
59512;SDS011;45330;51.634;5.562;2024-01-16T12:55:32;13.93;;;4.47;;
59512;SDS011;45330;51.634;5.562;2024-01-16T12:58:15;14.68;;;4.32;;
59512;SDS011;45330;51.634;5.562;2024-01-16T13:00:41;12.88;;;3.80;;
59512;SDS011;45330;51.634;5.562;2024-01-16T13:03:20;12.32;;;4.00;;
59512;SDS011;45330;51.634;5.562;2024-01-16T13:05:58;13.00;;;3.95;;
59512;SDS011;45330;51.634;5.562;2024-01-16T13:08:25;15.48;;;3.97;;
59512;SDS011;45330;51.634;5.562;2024-01-16T13:13:30;15.25;;;4.47;;
59512;SDS011;45330;51.634;5.562;2024-01-16T13:15:55;10.27;;;3.97;;
59512;SDS011;45330;51.634;5.562;2024-01-16T13:18:25;14.38;;;4.20;;
59512;SDS011;45330;51.634;5.562;2024-01-16T13:20:53;12.37;;;4.07;;
59512;SDS011;45330;51.634;5.562;2024-01-16T13:23:19;11.25;;;3.90;;
59512;SDS011;45330;51.634;5.562;2024-01-16T13:25:46;14.85;;;4.30;;
59512;SDS011;45330;51.634;5.562;2024-01-16T13:28:13;14.90;;;4.10;;
59512;SDS011;45330;51.634;5.562;2024-01-16T13:30:43;9.95;;;3.97;;
59512;SDS011;45330;51.634;5.562;2024-01-16T13:33:09;11.35;;;3.80;;
59512;SDS011;45330;51.634;5.562;2024-01-16T13:35:35;13.65;;;3.90;;
59512;SDS011;45330;51.634;5.562;2024-01-16T13:38:03;10.23;;;3.92;;
59512;SDS011;45330;51.634;5.562;2024-01-16T13:40:29;15.88;;;3.90;;
59512;SDS011;45330;51.634;5.562;2024-01-16T13:42:55;12.18;;;3.80;;
59512;SDS011;45330;51.634;5.562;2024-01-16T13:45:20;12.15;;;4.00;;
59512;SDS011;45330;51.634;5.562;2024-01-16T13:47:46;13.77;;;4.00;;
59512;SDS011;45330;51.634;5.562;2024-01-16T13:50:11;15.15;;;3.85;;
59512;SDS011;45330;51.634;5.562;2024-01-16T13:52:37;14.40;;;3.80;;
59512;SDS011;45330;51.634;5.562;2024-01-16T13:55:04;13.70;;;3.83;;
59512;SDS011;45330;51.634;5.562;2024-01-16T13:57:33;13.82;;;3.92;;
59512;SDS011;45330;51.634;5.562;2024-01-16T14:00:04;14.10;;;3.88;;
59512;SDS011;45330;51.634;5.562;2024-01-16T14:02:39;9.73;;;3.88;;
59512;SDS011;45330;51.634;5.562;2024-01-16T14:05:11;10.20;;;3.70;;
59512;SDS011;45330;51.634;5.562;2024-01-16T14:07:40;14.88;;;3.80;;
59512;SDS011;45330;51.634;5.562;2024-01-16T14:10:09;14.20;;;3.92;;
59512;SDS011;45330;51.634;5.562;2024-01-16T14:12:37;14.73;;;4.25;;
59512;SDS011;45330;51.634;5.562;2024-01-16T14:15:10;13.07;;;4.03;;
59512;SDS011;45330;51.634;5.562;2024-01-16T14:17:48;14.93;;;3.90;;
59512;SDS011;45330;51.634;5.562;2024-01-16T14:20:18;12.30;;;4.07;;
59512;SDS011;45330;51.634;5.562;2024-01-16T14:22:47;15.43;;;4.85;;
59512;SDS011;45330;51.634;5.562;2024-01-16T14:25:13;13.30;;;4.30;;
59512;SDS011;45330;51.634;5.562;2024-01-16T14:27:43;15.70;;;4.32;;
59512;SDS011;45330;51.634;5.562;2024-01-16T14:30:28;15.63;;;4.28;;
59512;SDS011;45330;51.634;5.562;2024-01-16T14:32:54;14.27;;;4.32;;
59512;SDS011;45330;51.634;5.562;2024-01-16T14:35:20;12.13;;;4.07;;
59512;SDS011;45330;51.634;5.562;2024-01-16T14:37:46;11.43;;;3.80;;
59512;SDS011;45330;51.634;5.562;2024-01-16T14:40:11;13.18;;;3.90;;
59512;SDS011;45330;51.634;5.562;2024-01-16T14:42:46;15.43;;;4.38;;
59512;SDS011;45330;51.634;5.562;2024-01-16T14:45:21;14.23;;;4.53;;
59512;SDS011;45330;51.634;5.562;2024-01-16T14:47:47;12.82;;;4.57;;